Time,TemperatureF,DewpointF,PressureIn,WindDirection,WindDirectionDegrees,WindSpeedMPH,WindSpeedGustMPH,Humidity,HourlyPrecipIn,Conditions,Clouds,dailyrainin,SoftwareType,DateUTC
2013-10-31 00:01:00,79.0,68.4,18.01,North,0,0.0,0.0,70,0.00,,SHRA,0.00,VWS V14.01,2013-10-31 04:01:00,
2013-10-31 00:02:00,79.0,68.4,18.01,North,0,0.0,0.0,70,0.00,,SHRA,0.00,VWS V14.01,2013-10-31 04:02:00,
2013-10-31 00:07:00,79.0,68.4,18.01,North,0,0.0,0.0,70,0.00,,SHRA,0.00,VWS V14.01,2013-10-31 04:07:00,
2013-10-31 00:12:00,79.0,68.4,18.01,North,0,0.0,0.0,70,0.00,,SHRA,0.00,VWS V14.01,2013-10-31 04:12:00,
2013-10-31 00:17:00,79.2,68.5,18.01,North,0,0.0,0.0,70,0.00,,SHRA,0.00,VWS V14.01,2013-10-31 04:17:00,
2013-10-31 00:22:00,79.0,68.4,18.01,North,0,0.0,0.0,70,0.00,,SHRA,0.00,VWS V14.01,2013-10-31 04:22:00,
2013-10-31 00:27:00,78.8,68.6,18.01,North,0,0.0,0.0,71,0.00,,SHRA,0.00,VWS V14.01,2013-10-31 04:27:00,
2013-10-31 00:32:00,78.8,68.2,18.01,North,0,0.0,0.0,70,0.00,,SHRA,0.00,VWS V14.01,2013-10-31 04:32:00,
2013-10-31 00:37:00,78.6,68.4,18.01,North,0,0.0,0.0,71,0.00,,SHRA,0.00,VWS V14.01,2013-10-31 04:37:00,
2013-10-31 00:42:00,78.4,68.3,18.01,North,0,0.0,0.0,71,0.00,,SHRA,0.00,VWS V14.01,2013-10-31 04:42:00,
2013-10-31 00:47:00,78.4,68.7,18.01,North,0,0.0,0.0,72,0.00,,SHRA,0.00,VWS V14.01,2013-10-31 04:47:00,
2013-10-31 00:52:00,78.4,68.7,18.01,North,0,0.0,0.0,72,0.00,,SHRA,0.00,VWS V14.01,2013-10-31 04:52:00,
2013-10-31 00:57:00,78.4,69.1,18.01,North,0,0.0,0.0,73,0.00,,SHRA,0.00,VWS V14.01,2013-10-31 04:57:00,
2013-10-31 01:02:00,77.9,68.6,18.01,North,0,0.0,0.0,73,0.00,,SHRA,0.00,VWS V14.01,2013-10-31 05:02:00,
2013-10-31 01:07:00,77.7,68.4,18.01,North,0,0.0,0.0,73,0.00,,SHRA,0.00,VWS V14.01,2013-10-31 05:07:00,
2013-10-31 01:12:00,77.7,68.4,18.01,North,0,0.0,0.0,73,0.00,,SHRA,0.00,VWS V14.01,2013-10-31 05:12:00,
2013-10-31 01:17:00,77.7,68.8,18.01,North,0,0.0,0.0,74,0.00,,SHRA,0.00,VWS V14.01,2013-10-31 05:17:00,
2013-10-31 01:22:00,77.7,69.2,18.01,North,0,0.0,0.0,75,0.00,,SHRA,0.00,VWS V14.01,2013-10-31 05:22:00,
2013-10-31 01:27:00,77.5,69.0,18.01,North,0,0.0,0.0,75,0.00,,SHRA,0.00,VWS V14.01,2013-10-31 05:27:00,
2013-10-31 01:32:00,77.4,68.8,18.01,North,0,0.0,0.0,75,0.00,,SHRA,0.00,VWS V14.01,2013-10-31 05:32:00,
2013-10-31 01:37:00,77.4,68.8,18.01,North,0,0.0,0.0,75,0.00,,SHRA,0.00,VWS V14.01,2013-10-31 05:37:00,
2013-10-31 01:42:00,77.4,69.2,18.01,North,0,0.0,0.0,76,0.00,,SHRA,0.00,VWS V14.01,2013-10-31 05:42:00,
2013-10-31 01:47:00,77.4,69.2,18.01,North,0,0.0,0.0,76,0.00,,SHRA,0.00,VWS V14.01,2013-10-31 05:47:00,
2013-10-31 01:52:00,77.5,69.4,18.01,North,0,0.0,0.0,76,0.00,,SHRA,0.00,VWS V14.01,2013-10-31 05:52:00,
2013-10-31 01:57:00,77.4,69.2,18.01,North,0,0.0,0.0,76,0.00,,SHRA,0.00,VWS V14.01,2013-10-31 05:57:00,
2013-10-31 02:02:00,77.2,69.0,18.01,North,0,0.0,0.0,76,0.00,,SHRA,0.00,VWS V14.01,2013-10-31 06:02:00,
2013-10-31 02:07:00,77.0,68.9,18.01,North,0,0.0,0.0,76,0.00,,SHRA,0.00,VWS V14.01,2013-10-31 06:07:00,
2013-10-31 02:12:00,76.8,68.7,18.01,North,0,0.0,0.0,76,0.00,,SHRA,0.00,VWS V14.01,2013-10-31 06:12:00,
2013-10-31 02:17:00,76.6,68.5,18.01,North,0,0.0,0.0,76,0.00,,SHRA,0.00,VWS V14.01,2013-10-31 06:17:00,
2013-10-31 02:22:00,76.5,68.3,18.01,North,0,0.0,0.0,76,0.00,,SHRA,0.00,VWS V14.01,2013-10-31 06:22:00,
2013-10-31 02:27:00,76.6,68.9,18.01,North,0,0.0,0.0,77,0.00,,SHRA,0.00,VWS V14.01,2013-10-31 06:27:00,
2013-10-31 02:32:00,76.6,68.9,18.01,North,0,0.0,0.0,77,0.00,,SHRA,0.00,VWS V14.01,2013-10-31 06:32:00,
2013-10-31 02:37:00,76.6,68.9,18.01,North,0,0.0,0.0,77,0.00,,SHRA,0.00,VWS V14.01,2013-10-31 06:37:00,
2013-10-31 02:42:00,76.6,69.3,18.01,North,0,0.0,0.0,78,0.00,,SHRA,0.00,VWS V14.01,2013-10-31 06:42:00,
2013-10-31 02:47:00,76.6,68.9,18.01,North,0,0.0,0.0,77,0.00,,SHRA,0.00,VWS V14.01,2013-10-31 06:47:00,
2013-10-31 02:52:00,76.3,68.9,18.01,North,0,0.0,0.0,78,0.00,,SHRA,0.00,VWS V14.01,2013-10-31 06:52:00,
2013-10-31 02:57:00,76.3,68.9,18.01,North,0,0.0,0.0,78,0.00,,SHRA,0.00,VWS V14.01,2013-10-31 06:57:00,
2013-10-31 03:02:00,76.1,68.8,18.01,North,0,0.0,0.0,78,0.00,,SHRA,0.00,VWS V14.01,2013-10-31 07:02:00,
2013-10-31 03:07:00,76.1,68.8,18.01,North,0,0.0,0.0,78,0.00,,SHRA,0.00,VWS V14.01,2013-10-31 07:07:00,
2013-10-31 03:12:00,75.9,68.6,18.01,North,0,0.0,0.0,78,0.00,,SHRA,0.00,VWS V14.01,2013-10-31 07:12:00,
2013-10-31 03:17:00,75.9,68.6,18.01,North,0,0.0,0.0,78,0.00,,SHRA,0.00,VWS V14.01,2013-10-31 07:17:00,
2013-10-31 03:22:00,75.9,68.6,18.01,North,0,0.0,0.0,78,0.00,,SHRA,0.00,VWS V14.01,2013-10-31 07:22:00,
2013-10-31 03:27:00,75.9,68.9,18.01,North,0,0.0,0.0,79,0.00,,SHRA,0.00,VWS V14.01,2013-10-31 07:27:00,
2013-10-31 03:33:00,75.9,68.9,18.01,North,0,0.0,0.0,79,0.00,,SHRA,0.00,VWS V14.01,2013-10-31 07:33:00,
2013-10-31 03:38:00,75.9,68.9,18.01,North,0,0.0,0.0,79,0.00,,SHRA,0.00,VWS V14.01,2013-10-31 07:38:00,
2013-10-31 03:43:00,76.1,69.1,18.01,North,0,0.0,0.0,79,0.00,,SHRA,0.00,VWS V14.01,2013-10-31 07:43:00,
2013-10-31 03:48:00,76.1,69.5,18.01,North,0,0.0,0.0,80,0.00,,SHRA,0.00,VWS V14.01,2013-10-31 07:48:00,
2013-10-31 03:53:00,76.3,69.7,18.01,North,0,0.0,0.0,80,0.00,,SHRA,0.00,VWS V14.01,2013-10-31 07:53:00,
2013-10-31 03:58:00,76.3,69.7,18.01,North,0,0.0,0.0,80,0.00,,SHRA,0.00,VWS V14.01,2013-10-31 07:58:00,
2013-10-31 04:03:00,75.9,69.3,18.01,North,0,0.0,0.0,80,0.00,,SHRA,0.00,VWS V14.01,2013-10-31 08:03:00,
2013-10-31 04:08:00,75.9,69.3,18.01,North,0,0.0,0.0,80,0.00,,SHRA,0.00,VWS V14.01,2013-10-31 08:08:00,
2013-10-31 04:13:00,76.1,69.5,18.01,North,0,0.0,0.0,80,0.00,,SHRA,0.00,VWS V14.01,2013-10-31 08:13:00,
2013-10-31 04:18:00,76.1,69.5,18.01,North,0,0.0,0.0,80,0.00,,SHRA,0.00,VWS V14.01,2013-10-31 08:18:00,
2013-10-31 04:23:00,76.1,69.8,18.01,North,0,0.0,0.0,81,0.00,,SHRA,0.00,VWS V14.01,2013-10-31 08:23:00,
2013-10-31 04:28:00,76.3,70.0,18.01,North,0,0.0,0.0,81,0.00,,SHRA,0.00,VWS V14.01,2013-10-31 08:28:00,
2013-10-31 04:33:00,76.3,70.0,18.01,North,0,0.0,0.0,81,0.00,,SHRA,0.00,VWS V14.01,2013-10-31 08:33:00,
2013-10-31 04:38:00,76.1,69.8,18.01,North,0,0.0,0.0,81,0.00,,SHRA,0.00,VWS V14.01,2013-10-31 08:38:00,
2013-10-31 04:43:00,75.9,69.7,18.01,North,0,0.0,0.0,81,0.00,,SHRA,0.00,VWS V14.01,2013-10-31 08:43:00,
2013-10-31 04:48:00,75.9,69.7,18.01,North,0,0.0,0.0,81,0.00,,SHRA,0.00,VWS V14.01,2013-10-31 08:48:00,
2013-10-31 04:53:00,75.9,69.7,18.01,North,0,0.0,0.0,81,0.00,,SHRA,0.00,VWS V14.01,2013-10-31 08:53:00,
2013-10-31 04:58:00,76.1,70.2,18.01,North,0,0.0,0.0,82,0.00,,SHRA,0.00,VWS V14.01,2013-10-31 08:58:00,
2013-10-31 05:03:00,76.1,70.2,18.01,North,0,0.0,0.0,82,0.00,,SHRA,0.00,VWS V14.01,2013-10-31 09:03:00,
2013-10-31 05:08:00,75.9,70.0,18.01,North,0,0.0,0.0,82,0.00,,SHRA,0.00,VWS V14.01,2013-10-31 09:08:00,
2013-10-31 05:13:00,76.1,70.2,18.01,North,0,0.0,0.0,82,0.00,,SHRA,0.00,VWS V14.01,2013-10-31 09:13:00,
2013-10-31 05:18:00,76.1,70.6,18.01,North,0,0.0,0.0,83,0.00,,SHRA,0.00,VWS V14.01,2013-10-31 09:18:00,
2013-10-31 05:23:00,76.1,70.6,18.01,North,0,0.0,0.0,83,0.00,,SHRA,0.00,VWS V14.01,2013-10-31 09:23:00,
2013-10-31 05:28:00,76.1,70.6,18.01,North,0,0.0,0.0,83,0.00,,SHRA,0.00,VWS V14.01,2013-10-31 09:28:00,
2013-10-31 05:33:00,76.1,70.6,18.01,North,0,0.0,0.0,83,0.00,,SHRA,0.00,VWS V14.01,2013-10-31 09:33:00,
2013-10-31 05:38:00,76.3,70.7,18.01,North,0,0.0,0.0,83,0.00,,SHRA,0.00,VWS V14.01,2013-10-31 09:38:00,
2013-10-31 05:43:00,76.1,70.6,18.01,North,0,0.0,0.0,83,0.00,,SHRA,0.00,VWS V14.01,2013-10-31 09:43:00,
2013-10-31 05:48:00,76.1,70.6,18.01,North,0,0.0,0.0,83,0.00,,SHRA,0.00,VWS V14.01,2013-10-31 09:48:00,
2013-10-31 05:53:00,75.9,70.4,18.01,North,0,0.0,0.0,83,0.00,,SHRA,0.00,VWS V14.01,2013-10-31 09:53:00,
2013-10-31 05:58:00,75.9,70.4,18.01,North,0,0.0,0.0,83,0.00,,SHRA,0.00,VWS V14.01,2013-10-31 09:58:00,
2013-10-31 06:03:00,75.9,70.4,18.01,North,0,0.0,0.0,83,0.00,,SHRA,0.00,VWS V14.01,2013-10-31 10:03:00,
2013-10-31 06:08:00,75.9,70.7,18.01,North,0,0.0,0.0,84,0.00,,SHRA,0.00,VWS V14.01,2013-10-31 10:08:00,
2013-10-31 06:13:00,75.9,70.7,18.01,North,0,0.0,0.0,84,0.00,,SHRA,0.00,VWS V14.01,2013-10-31 10:13:00,
2013-10-31 06:18:00,75.9,70.7,18.01,North,0,0.0,0.0,84,0.00,,SHRA,0.00,VWS V14.01,2013-10-31 10:18:00,
2013-10-31 06:23:00,76.1,71.3,18.01,North,0,0.0,0.0,85,0.00,,SHRA,0.00,VWS V14.01,2013-10-31 10:23:00,
2013-10-31 06:28:00,76.3,71.4,18.01,North,0,0.0,0.0,85,0.00,,SHRA,0.00,VWS V14.01,2013-10-31 10:28:00,
2013-10-31 06:33:00,76.3,71.4,18.01,North,0,0.0,0.0,85,0.00,,SHRA,0.00,VWS V14.01,2013-10-31 10:33:00,
2013-10-31 06:38:00,75.9,70.7,18.01,North,0,0.0,0.0,84,0.00,,SHRA,0.00,VWS V14.01,2013-10-31 10:38:00,
2013-10-31 06:43:00,75.9,70.7,18.01,North,0,0.0,0.0,84,0.00,,SHRA,0.00,VWS V14.01,2013-10-31 10:43:00,
2013-10-31 06:48:00,75.9,71.1,18.01,North,0,0.0,0.0,85,0.00,,SHRA,0.00,VWS V14.01,2013-10-31 10:48:00,
2013-10-31 06:53:00,75.9,71.1,18.01,North,0,0.0,0.0,85,0.00,,SHRA,0.00,VWS V14.01,2013-10-31 10:53:00,
2013-10-31 06:58:00,76.1,71.3,18.01,North,0,0.0,0.0,85,0.00,,SHRA,0.00,VWS V14.01,2013-10-31 10:58:00,
2013-10-31 07:03:00,76.3,71.4,18.01,North,0,0.0,0.0,85,0.00,,SHRA,0.00,VWS V14.01,2013-10-31 11:03:00,
2013-10-31 07:08:00,76.3,71.4,18.01,North,0,0.0,0.0,85,0.00,,SHRA,0.00,VWS V14.01,2013-10-31 11:08:00,
2013-10-31 07:13:00,76.3,71.4,18.01,North,0,0.0,0.0,85,0.00,,SHRA,0.00,VWS V14.01,2013-10-31 11:13:00,
2013-10-31 07:18:00,76.5,71.6,18.01,North,0,0.0,0.0,85,0.00,,SHRA,0.00,VWS V14.01,2013-10-31 11:18:00,
2013-10-31 07:23:00,76.8,72.0,18.01,North,0,0.0,0.0,85,0.00,,SHRA,0.00,VWS V14.01,2013-10-31 11:23:00,
2013-10-31 07:28:00,77.0,72.2,18.01,North,0,0.0,0.0,85,0.00,,SHRA,0.00,VWS V14.01,2013-10-31 11:28:00,
2013-10-31 07:33:00,77.0,72.2,18.01,North,0,0.0,0.0,85,0.00,,SHRA,0.00,VWS V14.01,2013-10-31 11:33:00,
2013-10-31 07:38:00,78.3,73.7,18.01,North,0,0.0,0.0,86,0.00,,SHRA,0.00,VWS V14.01,2013-10-31 11:38:00,
2013-10-31 07:43:00,78.3,73.4,18.01,North,0,0.0,0.0,85,0.00,,SHRA,0.00,VWS V14.01,2013-10-31 11:43:00,
2013-10-31 07:48:00,78.4,73.6,18.01,North,0,0.0,0.0,85,0.00,,SHRA,0.00,VWS V14.01,2013-10-31 11:48:00,
2013-10-31 07:53:00,78.6,73.7,18.01,North,0,0.0,0.0,85,0.00,,SHRA,0.00,VWS V14.01,2013-10-31 11:53:00,
2013-10-31 07:58:00,78.6,73.7,18.01,North,0,0.0,0.0,85,0.00,,SHRA,0.00,VWS V14.01,2013-10-31 11:58:00,
2013-10-31 08:03:00,79.3,74.4,18.01,North,0,0.0,0.0,85,0.00,,SHRA,0.00,VWS V14.01,2013-10-31 12:03:00,
2013-10-31 08:08:00,80.2,75.3,18.01,North,0,0.0,0.0,85,0.00,,SHRA,0.00,VWS V14.01,2013-10-31 12:08:00,
2013-10-31 08:13:00,80.2,75.3,18.01,North,0,0.0,0.0,85,0.00,,SHRA,0.00,VWS V14.01,2013-10-31 12:13:00,
2013-10-31 08:18:00,81.0,74.2,18.01,North,0,0.0,0.0,80,0.00,,SHRA,0.00,VWS V14.01,2013-10-31 12:18:00,
2013-10-31 08:23:00,81.0,71.9,18.01,North,0,0.0,0.0,74,0.00,,SHRA,0.00,VWS V14.01,2013-10-31 12:23:00,
2013-10-31 08:28:00,81.1,70.4,18.01,North,0,0.0,0.0,70,0.00,,SHRA,0.00,VWS V14.01,2013-10-31 12:28:00,
2013-10-31 08:33:00,81.1,70.4,18.01,North,0,0.0,0.0,70,0.00,,SHRA,0.00,VWS V14.01,2013-10-31 12:33:00,
2013-10-31 08:38:00,81.1,70.4,18.01,North,0,0.0,0.0,70,0.00,,SHRA,0.00,VWS V14.01,2013-10-31 12:38:00,
2013-10-31 08:43:00,81.1,70.4,18.01,North,0,0.0,0.0,70,0.00,,SHRA,0.00,VWS V14.01,2013-10-31 12:43:00,
2013-10-31 08:48:00,81.1,70.4,18.01,North,0,0.0,0.0,70,0.00,,SHRA,0.00,VWS V14.01,2013-10-31 12:48:00,
2013-10-31 08:53:00,81.1,70.4,18.01,North,0,0.0,0.0,70,0.00,,SHRA,0.00,VWS V14.01,2013-10-31 12:53:00,
2013-10-31 08:58:00,81.1,70.4,18.01,North,0,0.0,0.0,70,0.00,,SHRA,0.00,VWS V14.01,2013-10-31 12:58:00,
2013-10-31 09:03:00,81.1,70.4,18.01,North,0,0.0,0.0,70,0.00,,SHRA,0.00,VWS V14.01,2013-10-31 13:03:00,
2013-10-31 09:08:00,81.1,70.4,18.01,North,0,0.0,0.0,70,0.00,,SHRA,0.00,VWS V14.01,2013-10-31 13:08:00,
2013-10-31 09:13:00,81.1,70.4,18.01,North,0,0.0,0.0,70,0.00,,SHRA,0.00,VWS V14.01,2013-10-31 13:13:00,
2013-10-31 09:18:00,81.1,70.4,18.01,North,0,0.0,0.0,70,0.00,,SHRA,0.00,VWS V14.01,2013-10-31 13:18:00,
2013-10-31 09:23:00,81.1,70.4,18.01,North,0,0.0,0.0,70,0.00,,SHRA,0.00,VWS V14.01,2013-10-31 13:23:00,
2013-10-31 09:28:00,81.1,70.4,18.01,North,0,0.0,0.0,70,0.00,,SHRA,0.00,VWS V14.01,2013-10-31 13:28:00,
2013-10-31 09:33:00,81.1,70.4,18.01,North,0,0.0,0.0,70,0.00,,SHRA,0.00,VWS V14.01,2013-10-31 13:33:00,
2013-10-31 09:38:00,81.1,70.4,18.01,North,0,0.0,0.0,70,0.00,,SHRA,0.00,VWS V14.01,2013-10-31 13:38:00,
2013-10-31 09:43:00,81.1,70.4,18.01,North,0,0.0,0.0,70,0.00,,SHRA,0.00,VWS V14.01,2013-10-31 13:43:00,
2013-10-31 09:49:00,81.1,70.4,18.01,North,0,0.0,0.0,70,0.00,,SHRA,0.00,VWS V14.01,2013-10-31 13:49:00,
2013-10-31 09:54:00,81.1,70.4,18.01,North,0,0.0,0.0,70,0.00,,SHRA,0.00,VWS V14.01,2013-10-31 13:54:00,
2013-10-31 09:59:00,81.1,70.4,18.01,North,0,0.0,0.0,70,0.00,,SHRA,0.00,VWS V14.01,2013-10-31 13:59:00,
2013-10-31 10:04:00,81.1,70.4,18.01,North,0,0.0,0.0,70,0.00,,SHRA,0.00,VWS V14.01,2013-10-31 14:04:00,
2013-10-31 10:09:00,81.1,70.4,18.01,North,0,0.0,0.0,70,0.00,,SHRA,0.00,VWS V14.01,2013-10-31 14:09:00,
2013-10-31 10:14:00,81.1,70.4,18.01,North,0,0.0,0.0,70,0.00,,SHRA,0.00,VWS V14.01,2013-10-31 14:14:00,
2013-10-31 10:19:00,81.1,70.4,18.01,North,0,0.0,0.0,70,0.00,,SHRA,0.00,VWS V14.01,2013-10-31 14:19:00,
2013-10-31 10:24:00,81.1,70.4,18.01,North,0,0.0,0.0,70,0.00,,SHRA,0.00,VWS V14.01,2013-10-31 14:24:00,
2013-10-31 10:29:00,84.0,62.2,18.01,North,0,0.0,0.0,48,0.00,,SHRA,0.00,VWS V14.01,2013-10-31 14:29:00,
2013-10-31 10:34:00,84.0,62.2,18.01,North,0,0.0,0.0,48,0.00,,SHRA,0.00,VWS V14.01,2013-10-31 14:34:00,
2013-10-31 10:39:00,84.0,62.2,18.01,North,0,0.0,0.0,48,0.00,,SHRA,0.00,VWS V14.01,2013-10-31 14:39:00,
2013-10-31 10:44:00,85.3,60.3,18.01,North,0,0.0,0.0,43,0.00,,SHRA,0.00,VWS V14.01,2013-10-31 14:44:00,
2013-10-31 10:49:00,85.3,60.3,18.01,North,0,0.0,0.0,43,0.00,,SHRA,0.00,VWS V14.01,2013-10-31 14:49:00,
2013-10-31 10:54:00,86.2,59.7,18.01,North,0,0.0,0.0,41,0.00,,SHRA,0.00,VWS V14.01,2013-10-31 14:54:00,
2013-10-31 10:59:00,86.4,59.2,18.01,North,0,0.0,0.0,40,0.00,,SHRA,0.00,VWS V14.01,2013-10-31 14:59:00,
2013-10-31 11:04:00,87.1,59.2,18.01,North,0,0.0,0.0,39,0.00,,SHRA,0.00,VWS V14.01,2013-10-31 15:04:00,
2013-10-31 11:09:00,87.6,57.4,18.01,North,0,0.0,0.0,36,0.00,,SHRA,0.00,VWS V14.01,2013-10-31 15:09:00,
2013-10-31 11:14:00,87.6,55.8,18.01,North,0,0.0,0.0,34,0.00,,SHRA,0.00,VWS V14.01,2013-10-31 15:14:00,
2013-10-31 11:19:00,87.6,55.8,18.01,North,0,0.0,0.0,34,0.00,,SHRA,0.00,VWS V14.01,2013-10-31 15:19:00,
2013-10-31 11:24:00,87.3,54.7,18.01,North,0,0.0,0.0,33,0.00,,SHRA,0.00,VWS V14.01,2013-10-31 15:24:00,
2013-10-31 11:29:00,86.4,54.7,18.01,North,0,0.0,0.0,34,0.00,,SHRA,0.00,VWS V14.01,2013-10-31 15:29:00,
2013-10-31 11:34:00,86.9,57.5,18.01,North,0,0.0,0.0,37,0.00,,SHRA,0.00,VWS V14.01,2013-10-31 15:34:00,
2013-10-31 11:39:00,86.7,55.0,18.01,North,0,0.0,0.0,34,0.00,,SHRA,0.00,VWS V14.01,2013-10-31 15:39:00,
2013-10-31 11:44:00,86.9,56.0,18.01,North,0,0.0,0.0,35,0.00,,SHRA,0.00,VWS V14.01,2013-10-31 15:44:00,
2013-10-31 11:49:00,87.1,53.7,18.01,North,0,0.0,0.0,32,0.00,,SHRA,0.00,VWS V14.01,2013-10-31 15:49:00,
2013-10-31 11:54:00,87.1,56.1,18.01,North,0,0.0,0.0,35,0.00,,SHRA,0.00,VWS V14.01,2013-10-31 15:54:00,
2013-10-31 11:59:00,86.0,59.6,18.01,North,0,0.0,0.0,41,0.00,,SHRA,0.00,VWS V14.01,2013-10-31 15:59:00,
2013-10-31 12:04:00,86.5,65.7,18.01,North,0,0.0,0.0,50,0.00,,SHRA,0.00,VWS V14.01,2013-10-31 16:04:00,
2013-10-31 12:09:00,87.1,64.4,18.01,North,0,0.0,0.0,47,0.00,,SHRA,0.00,VWS V14.01,2013-10-31 16:09:00,
2013-10-31 12:14:00,87.4,64.1,18.01,North,0,0.0,0.0,46,0.00,,SHRA,0.00,VWS V14.01,2013-10-31 16:14:00,
2013-10-31 12:19:00,87.3,62.7,18.01,North,0,0.0,0.0,44,0.00,,SHRA,0.00,VWS V14.01,2013-10-31 16:19:00,
2013-10-31 12:24:00,87.1,61.2,18.01,North,0,0.0,0.0,42,0.00,,SHRA,0.00,VWS V14.01,2013-10-31 16:24:00,
2013-10-31 12:29:00,87.1,59.8,18.01,North,0,0.0,0.0,40,0.00,,SHRA,0.00,VWS V14.01,2013-10-31 16:29:00,
2013-10-31 12:34:00,88.2,57.9,18.01,North,0,0.0,0.0,36,0.00,,SHRA,0.00,VWS V14.01,2013-10-31 16:34:00,
2013-10-31 12:39:00,89.1,56.2,18.01,North,0,0.0,0.0,33,0.00,,SHRA,0.00,VWS V14.01,2013-10-31 16:39:00,
2013-10-31 12:44:00,89.2,54.7,18.01,North,0,0.0,0.0,31,0.00,,SHRA,0.00,VWS V14.01,2013-10-31 16:44:00,
2013-10-31 12:49:00,88.7,51.4,18.01,North,0,0.0,0.0,28,0.00,,SHRA,0.00,VWS V14.01,2013-10-31 16:49:00,
2013-10-31 12:54:00,89.2,52.9,18.01,North,0,0.0,0.0,29,0.00,,SHRA,0.00,VWS V14.01,2013-10-31 16:54:00,
2013-10-31 12:59:00,88.7,52.4,18.01,North,0,0.0,0.0,29,0.00,,SHRA,0.00,VWS V14.01,2013-10-31 16:59:00,
2013-10-31 13:04:00,88.2,52.8,18.01,North,0,0.0,0.0,30,0.00,,SHRA,0.00,VWS V14.01,2013-10-31 17:04:00,
2013-10-31 13:09:00,88.2,53.7,18.01,North,0,0.0,0.0,31,0.00,,SHRA,0.00,VWS V14.01,2013-10-31 17:09:00,
2013-10-31 13:14:00,88.9,53.5,18.01,North,0,0.0,0.0,30,0.00,,SHRA,0.00,VWS V14.01,2013-10-31 17:14:00,
2013-10-31 13:19:00,88.9,52.5,18.01,North,0,0.0,0.0,29,0.00,,SHRA,0.00,VWS V14.01,2013-10-31 17:19:00,
2013-10-31 13:24:00,88.9,51.6,18.01,North,0,0.0,0.0,28,0.00,,SHRA,0.00,VWS V14.01,2013-10-31 17:24:00,
2013-10-31 13:29:00,88.7,52.4,18.01,North,0,0.0,0.0,29,0.00,,SHRA,0.00,VWS V14.01,2013-10-31 17:29:00,
2013-10-31 13:34:00,88.7,53.3,18.01,North,0,0.0,0.0,30,0.00,,SHRA,0.00,VWS V14.01,2013-10-31 17:34:00,
2013-10-31 13:39:00,88.5,53.2,18.01,North,0,0.0,0.0,30,0.00,,SHRA,0.00,VWS V14.01,2013-10-31 17:39:00,
2013-10-31 13:44:00,88.2,52.8,18.01,North,0,0.0,0.0,30,0.00,,SHRA,0.00,VWS V14.01,2013-10-31 17:44:00,
2013-10-31 13:49:00,88.2,51.9,18.01,North,0,0.0,0.0,29,0.00,,SHRA,0.00,VWS V14.01,2013-10-31 17:49:00,
2013-10-31 13:54:00,88.3,52.1,18.01,North,0,0.0,0.0,29,0.00,,SHRA,0.00,VWS V14.01,2013-10-31 17:54:00,
2013-10-31 13:59:00,89.1,51.8,18.01,North,0,0.0,0.0,28,0.00,,SHRA,0.00,VWS V14.01,2013-10-31 17:59:00,
2013-10-31 14:04:00,88.9,51.6,18.01,North,0,0.0,0.0,28,0.00,,SHRA,0.00,VWS V14.01,2013-10-31 18:04:00,
2013-10-31 14:09:00,88.9,51.6,18.01,North,0,0.0,0.0,28,0.00,,SHRA,0.00,VWS V14.01,2013-10-31 18:09:00,
2013-10-31 14:14:00,88.5,52.2,18.01,North,0,0.0,0.0,29,0.00,,SHRA,0.00,VWS V14.01,2013-10-31 18:14:00,
2013-10-31 14:19:00,87.6,51.5,18.01,North,0,0.0,0.0,29,0.00,,SHRA,0.00,VWS V14.01,2013-10-31 18:19:00,
2013-10-31 14:24:00,87.3,52.1,18.01,North,0,0.0,0.0,30,0.00,,SHRA,0.00,VWS V14.01,2013-10-31 18:24:00,
2013-10-31 14:29:00,88.7,53.3,18.01,North,0,0.0,0.0,30,0.00,,SHRA,0.00,VWS V14.01,2013-10-31 18:29:00,
2013-10-31 14:34:00,88.3,51.1,18.01,North,0,0.0,0.0,28,0.00,,SHRA,0.00,VWS V14.01,2013-10-31 18:34:00,
2013-10-31 14:39:00,88.3,51.1,18.01,North,0,0.0,0.0,28,0.00,,SHRA,0.00,VWS V14.01,2013-10-31 18:39:00,
2013-10-31 14:44:00,88.3,52.1,18.01,North,0,0.0,0.0,29,0.00,,SHRA,0.00,VWS V14.01,2013-10-31 18:44:00,
2013-10-31 14:49:00,88.2,51.9,18.01,North,0,0.0,0.0,29,0.00,,SHRA,0.00,VWS V14.01,2013-10-31 18:49:00,
2013-10-31 14:54:00,87.3,52.1,18.01,North,0,0.0,0.0,30,0.00,,SHRA,0.00,VWS V14.01,2013-10-31 18:54:00,
2013-10-31 14:59:00,87.1,51.9,18.01,North,0,0.0,0.0,30,0.00,,SHRA,0.00,VWS V14.01,2013-10-31 18:59:00,
2013-10-31 15:04:00,87.1,53.7,18.01,North,0,0.0,0.0,32,0.00,,SHRA,0.00,VWS V14.01,2013-10-31 19:04:00,
2013-10-31 15:09:00,86.9,52.7,18.01,North,0,0.0,0.0,31,0.00,,SHRA,0.00,VWS V14.01,2013-10-31 19:09:00,
2013-10-31 15:14:00,86.9,54.4,18.01,North,0,0.0,0.0,33,0.00,,SHRA,0.00,VWS V14.01,2013-10-31 19:14:00,
2013-10-31 15:19:00,86.9,53.5,18.01,North,0,0.0,0.0,32,0.00,,SHRA,0.00,VWS V14.01,2013-10-31 19:19:00,
2013-10-31 15:24:00,86.9,53.5,18.01,North,0,0.0,0.0,32,0.00,,SHRA,0.00,VWS V14.01,2013-10-31 19:24:00,
2013-10-31 15:29:00,86.7,53.4,18.01,North,0,0.0,0.0,32,0.00,,SHRA,0.00,VWS V14.01,2013-10-31 19:29:00,
2013-10-31 15:34:00,86.5,53.2,18.01,North,0,0.0,0.0,32,0.00,,SHRA,0.00,VWS V14.01,2013-10-31 19:34:00,
2013-10-31 15:39:00,86.5,53.2,18.01,North,0,0.0,0.0,32,0.00,,SHRA,0.00,VWS V14.01,2013-10-31 19:39:00,
2013-10-31 15:44:00,86.4,52.2,18.01,North,0,0.0,0.0,31,0.00,,SHRA,0.00,VWS V14.01,2013-10-31 19:44:00,
2013-10-31 15:49:00,86.2,52.9,18.01,North,0,0.0,0.0,32,0.00,,SHRA,0.00,VWS V14.01,2013-10-31 19:49:00,
2013-10-31 15:53:00,86.2,53.7,18.01,North,0,0.0,0.0,33,0.00,,SHRA,0.00,VWS V14.01,2013-10-31 19:53:00,
2013-10-31 15:58:00,86.0,54.4,18.01,North,0,0.0,0.0,34,0.00,,SHRA,0.00,VWS V14.01,2013-10-31 19:58:00,
2013-10-31 16:03:00,86.0,54.4,18.01,North,0,0.0,0.0,34,0.00,,SHRA,0.00,VWS V14.01,2013-10-31 20:03:00,
2013-10-31 16:08:00,86.0,54.4,18.01,North,0,0.0,0.0,34,0.00,,SHRA,0.00,VWS V14.01,2013-10-31 20:08:00,
2013-10-31 16:13:00,85.8,55.0,18.01,North,0,0.0,0.0,35,0.00,,SHRA,0.00,VWS V14.01,2013-10-31 20:13:00,
2013-10-31 16:18:00,85.6,56.4,18.01,North,0,0.0,0.0,37,0.00,,SHRA,0.00,VWS V14.01,2013-10-31 20:18:00,
2013-10-31 16:23:00,85.6,56.4,18.01,North,0,0.0,0.0,37,0.00,,SHRA,0.00,VWS V14.01,2013-10-31 20:23:00,
2013-10-31 16:28:00,85.6,56.4,18.01,North,0,0.0,0.0,37,0.00,,SHRA,0.00,VWS V14.01,2013-10-31 20:28:00,
2013-10-31 16:33:00,85.6,56.4,18.01,North,0,0.0,0.0,37,0.00,,SHRA,0.00,VWS V14.01,2013-10-31 20:33:00,
2013-10-31 16:38:00,84.9,55.8,18.01,North,0,0.0,0.0,37,0.00,,SHRA,0.00,VWS V14.01,2013-10-31 20:38:00,
2013-10-31 16:43:00,84.7,57.1,18.01,North,0,0.0,0.0,39,0.00,,SHRA,0.00,VWS V14.01,2013-10-31 20:43:00,
2013-10-31 16:48:00,84.6,56.9,18.01,North,0,0.0,0.0,39,0.00,,SHRA,0.00,VWS V14.01,2013-10-31 20:48:00,
2013-10-31 16:53:00,84.0,56.4,18.01,North,0,0.0,0.0,39,0.00,,SHRA,0.00,VWS V14.01,2013-10-31 20:53:00,
2013-10-31 16:58:00,83.5,58.7,18.01,North,0,0.0,0.0,43,0.04,,SHRA,0.04,VWS V14.01,2013-10-31 20:58:00,
2013-10-31 17:03:00,82.4,57.0,18.01,North,0,0.0,0.0,42,0.04,,SHRA,0.04,VWS V14.01,2013-10-31 21:03:00,
2013-10-31 17:08:00,81.7,60.7,18.01,North,0,0.0,0.0,49,0.04,,SHRA,0.04,VWS V14.01,2013-10-31 21:08:00,
2013-10-31 17:13:00,81.3,62.0,18.01,North,0,0.0,0.0,52,0.08,,SHRA,0.08,VWS V14.01,2013-10-31 21:13:00,
2013-10-31 17:18:00,81.0,61.7,18.01,North,0,0.0,0.0,52,0.12,,SHRA,0.12,VWS V14.01,2013-10-31 21:18:00,
2013-10-31 17:23:00,80.4,62.3,18.01,North,0,0.0,0.0,54,0.12,,SHRA,0.12,VWS V14.01,2013-10-31 21:23:00,
2013-10-31 17:28:00,80.8,63.6,18.01,North,0,0.0,0.0,56,0.12,,SHRA,0.12,VWS V14.01,2013-10-31 21:28:00,
2013-10-31 17:33:00,81.0,65.3,18.01,North,0,0.0,0.0,59,0.12,,SHRA,0.12,VWS V14.01,2013-10-31 21:33:00,
2013-10-31 17:38:00,81.1,66.9,18.01,North,0,0.0,0.0,62,0.12,,SHRA,0.12,VWS V14.01,2013-10-31 21:38:00,
2013-10-31 17:43:00,81.0,66.7,18.01,North,0,0.0,0.0,62,0.12,,SHRA,0.12,VWS V14.01,2013-10-31 21:43:00,
2013-10-31 17:48:00,81.0,66.7,18.01,North,0,0.0,0.0,62,0.28,,SHRA,0.28,VWS V14.01,2013-10-31 21:48:00,
2013-10-31 17:53:00,81.0,67.2,18.01,North,0,0.0,0.0,63,0.28,,SHRA,0.28,VWS V14.01,2013-10-31 21:53:00,
2013-10-31 17:58:00,81.1,67.8,18.01,North,0,0.0,0.0,64,0.28,,SHRA,0.28,VWS V14.01,2013-10-31 21:58:00,
2013-10-31 18:03:00,81.0,68.5,18.01,North,0,0.0,0.0,66,0.24,,SHRA,0.28,VWS V14.01,2013-10-31 22:03:00,
2013-10-31 18:08:00,81.0,68.5,18.01,North,0,0.0,0.0,66,0.24,,SHRA,0.28,VWS V14.01,2013-10-31 22:08:00,
2013-10-31 18:13:00,81.0,68.5,18.01,North,0,0.0,0.0,66,0.24,,SHRA,0.28,VWS V14.01,2013-10-31 22:13:00,
2013-10-31 18:18:00,81.0,68.5,18.01,North,0,0.0,0.0,66,0.24,,SHRA,0.28,VWS V14.01,2013-10-31 22:18:00,
2013-10-31 18:23:00,80.8,68.4,18.01,North,0,0.0,0.0,66,0.16,,SHRA,0.28,VWS V14.01,2013-10-31 22:23:00,
2013-10-31 18:28:00,80.8,68.4,18.01,North,0,0.0,0.0,66,0.16,,SHRA,0.28,VWS V14.01,2013-10-31 22:28:00,
2013-10-31 18:33:00,80.8,68.8,18.01,North,0,0.0,0.0,67,0.16,,SHRA,0.28,VWS V14.01,2013-10-31 22:33:00,
2013-10-31 18:39:00,80.6,68.6,18.01,North,0,0.0,0.0,67,0.16,,SHRA,0.28,VWS V14.01,2013-10-31 22:39:00,
2013-10-31 18:44:00,80.6,68.6,18.01,North,0,0.0,0.0,67,0.16,,SHRA,0.28,VWS V14.01,2013-10-31 22:44:00,
2013-10-31 18:49:00,80.4,68.0,18.01,North,0,0.0,0.0,66,0.16,,SHRA,0.28,VWS V14.01,2013-10-31 22:49:00,
2013-10-31 18:54:00,80.4,68.5,18.01,North,0,0.0,0.0,67,0.24,,SHRA,0.35,VWS V14.01,2013-10-31 22:54:00,
2013-10-31 18:59:00,80.2,68.7,18.01,North,0,0.0,0.0,68,0.24,,SHRA,0.35,VWS V14.01,2013-10-31 22:59:00,
2013-10-31 19:04:00,79.5,65.8,18.01,North,0,0.0,0.0,63,0.08,,SHRA,0.35,VWS V14.01,2013-10-31 23:04:00,
2013-10-31 19:09:00,79.5,65.4,18.01,North,0,0.0,0.0,62,0.08,,SHRA,0.35,VWS V14.01,2013-10-31 23:09:00,
2013-10-31 19:14:00,79.5,65.8,18.01,North,0,0.0,0.0,63,0.08,,SHRA,0.35,VWS V14.01,2013-10-31 23:14:00,
2013-10-31 19:19:00,79.2,64.6,18.01,North,0,0.0,0.0,61,0.08,,SHRA,0.35,VWS V14.01,2013-10-31 23:19:00,
2013-10-31 19:24:00,79.0,63.4,18.01,North,0,0.0,0.0,59,0.08,,SHRA,0.35,VWS V14.01,2013-10-31 23:24:00,
2013-10-31 19:29:00,78.3,60.8,18.01,North,0,0.0,0.0,55,0.08,,SHRA,0.35,VWS V14.01,2013-10-31 23:29:00,
2013-10-31 19:34:00,77.7,57.1,18.01,North,0,0.0,0.0,49,0.08,,SHRA,0.35,VWS V14.01,2013-10-31 23:34:00,
2013-10-31 19:39:00,77.7,57.6,18.01,North,0,0.0,0.0,50,0.08,,SHRA,0.35,VWS V14.01,2013-10-31 23:39:00,
2013-10-31 19:44:00,77.4,58.4,18.01,North,0,0.0,0.0,52,0.08,,SHRA,0.35,VWS V14.01,2013-10-31 23:44:00,
2013-10-31 19:49:00,77.2,58.2,18.01,North,0,0.0,0.0,52,0.08,,SHRA,0.35,VWS V14.01,2013-10-31 23:49:00,
2013-10-31 19:54:00,77.0,57.0,18.01,North,0,0.0,0.0,50,0.08,,SHRA,0.35,VWS V14.01,2013-10-31 23:54:00,
2013-10-31 19:59:00,77.2,58.7,18.01,North,0,0.0,0.0,53,0.08,,SHRA,0.35,VWS V14.01,2013-10-31 23:59:00,
2013-10-31 20:04:00,76.6,59.3,18.01,North,0,0.0,0.0,55,0.00,,SHRA,0.35,VWS V14.01,2013-11-01 00:04:00,
2013-10-31 20:09:00,76.8,60.5,18.01,North,0,0.0,0.0,57,0.00,,SHRA,0.35,VWS V14.01,2013-11-01 00:09:00,
2013-10-31 20:14:00,76.8,60.5,18.01,North,0,0.0,0.0,57,0.00,,SHRA,0.35,VWS V14.01,2013-11-01 00:14:00,
2013-10-31 20:19:00,76.8,60.0,18.01,North,0,0.0,0.0,56,0.00,,SHRA,0.35,VWS V14.01,2013-11-01 00:19:00,
2013-10-31 20:24:00,76.8,61.9,18.01,North,0,0.0,0.0,60,0.00,,SHRA,0.35,VWS V14.01,2013-11-01 00:24:00,
2013-10-31 20:29:00,76.6,62.2,18.01,North,0,0.0,0.0,61,0.00,,SHRA,0.35,VWS V14.01,2013-11-01 00:29:00,
2013-10-31 20:34:00,76.6,62.7,18.01,North,0,0.0,0.0,62,0.00,,SHRA,0.35,VWS V14.01,2013-11-01 00:34:00,
2013-10-31 20:39:00,76.5,62.9,18.01,North,0,0.0,0.0,63,0.00,,SHRA,0.35,VWS V14.01,2013-11-01 00:39:00,
2013-10-31 20:44:00,76.8,63.3,18.01,North,0,0.0,0.0,63,0.00,,SHRA,0.35,VWS V14.01,2013-11-01 00:44:00,
2013-10-31 20:49:00,76.3,63.2,18.01,North,0,0.0,0.0,64,0.00,,SHRA,0.35,VWS V14.01,2013-11-01 00:49:00,
2013-10-31 20:54:00,76.5,63.4,18.01,North,0,0.0,0.0,64,0.00,,SHRA,0.35,VWS V14.01,2013-11-01 00:54:00,
2013-10-31 20:59:00,76.5,63.4,18.01,North,0,0.0,0.0,64,0.00,,SHRA,0.35,VWS V14.01,2013-11-01 00:59:00,
2013-10-31 21:04:00,76.5,63.4,18.01,North,0,0.0,0.0,64,0.00,,SHRA,0.35,VWS V14.01,2013-11-01 01:04:00,
2013-10-31 21:09:00,76.3,63.7,18.01,North,0,0.0,0.0,65,0.00,,SHRA,0.35,VWS V14.01,2013-11-01 01:09:00,
2013-10-31 21:14:00,76.1,63.9,18.01,North,0,0.0,0.0,66,0.00,,SHRA,0.35,VWS V14.01,2013-11-01 01:14:00,
2013-10-31 21:19:00,76.1,63.9,18.01,North,0,0.0,0.0,66,0.00,,SHRA,0.35,VWS V14.01,2013-11-01 01:19:00,
2013-10-31 21:24:00,75.7,63.6,18.01,North,0,0.0,0.0,66,0.00,,SHRA,0.35,VWS V14.01,2013-11-01 01:24:00,
2013-10-31 21:29:00,75.6,63.0,18.01,North,0,0.0,0.0,65,0.00,,SHRA,0.35,VWS V14.01,2013-11-01 01:29:00,
2013-10-31 21:34:00,75.6,63.4,18.01,North,0,0.0,0.0,66,0.00,,SHRA,0.35,VWS V14.01,2013-11-01 01:34:00,
2013-10-31 21:39:00,75.7,63.6,18.01,North,0,0.0,0.0,66,0.00,,SHRA,0.35,VWS V14.01,2013-11-01 01:39:00,
2013-10-31 21:44:00,76.1,64.4,18.01,North,0,0.0,0.0,67,0.00,,SHRA,0.35,VWS V14.01,2013-11-01 01:44:00,
2013-10-31 21:49:00,76.1,64.4,18.01,North,0,0.0,0.0,67,0.00,,SHRA,0.35,VWS V14.01,2013-11-01 01:49:00,
2013-10-31 21:54:00,76.1,64.8,18.01,North,0,0.0,0.0,68,0.00,,SHRA,0.35,VWS V14.01,2013-11-01 01:54:00,
2013-10-31 21:59:00,76.1,64.8,18.01,North,0,0.0,0.0,68,0.00,,SHRA,0.35,VWS V14.01,2013-11-01 01:59:00,
2013-10-31 22:04:00,76.5,65.5,18.01,North,0,0.0,0.0,69,0.00,,SHRA,0.35,VWS V14.01,2013-11-01 02:04:00,
2013-10-31 22:09:00,76.3,65.4,18.01,North,0,0.0,0.0,69,0.00,,SHRA,0.35,VWS V14.01,2013-11-01 02:09:00,
2013-10-31 22:14:00,76.1,65.2,18.01,North,0,0.0,0.0,69,0.00,,SHRA,0.35,VWS V14.01,2013-11-01 02:14:00,
2013-10-31 22:19:00,75.9,65.0,18.01,North,0,0.0,0.0,69,0.00,,SHRA,0.35,VWS V14.01,2013-11-01 02:19:00,
2013-10-31 22:24:00,75.7,64.4,18.01,North,0,0.0,0.0,68,0.00,,SHRA,0.35,VWS V14.01,2013-11-01 02:24:00,
2013-10-31 22:29:00,75.6,64.3,18.01,North,0,0.0,0.0,68,0.00,,SHRA,0.35,VWS V14.01,2013-11-01 02:29:00,
2013-10-31 22:34:00,75.7,64.4,18.01,North,0,0.0,0.0,68,0.00,,SHRA,0.35,VWS V14.01,2013-11-01 02:34:00,
2013-10-31 22:39:00,75.7,64.9,18.01,North,0,0.0,0.0,69,0.00,,SHRA,0.35,VWS V14.01,2013-11-01 02:39:00,
2013-10-31 22:44:00,75.7,64.9,18.01,North,0,0.0,0.0,69,0.00,,SHRA,0.35,VWS V14.01,2013-11-01 02:44:00,
2013-10-31 22:49:00,75.9,65.0,18.01,North,0,0.0,0.0,69,0.00,,SHRA,0.35,VWS V14.01,2013-11-01 02:49:00,
2013-10-31 22:54:00,75.6,64.3,18.01,North,0,0.0,0.0,68,0.00,,SHRA,0.35,VWS V14.01,2013-11-01 02:54:00,
2013-10-31 22:59:00,75.6,64.3,18.01,North,0,0.0,0.0,68,0.00,,SHRA,0.35,VWS V14.01,2013-11-01 02:59:00,
2013-10-31 23:04:00,75.6,64.7,18.01,North,0,0.0,0.0,69,0.00,,SHRA,0.35,VWS V14.01,2013-11-01 03:04:00,
2013-10-31 23:09:00,75.2,64.8,18.01,North,0,0.0,0.0,70,0.00,,SHRA,0.35,VWS V14.01,2013-11-01 03:09:00,
2013-10-31 23:14:00,75.2,64.8,18.01,North,0,0.0,0.0,70,0.00,,SHRA,0.35,VWS V14.01,2013-11-01 03:14:00,
2013-10-31 23:19:00,75.4,64.9,18.01,North,0,0.0,0.0,70,0.00,,SHRA,0.35,VWS V14.01,2013-11-01 03:19:00,
2013-10-31 23:24:00,75.4,65.3,18.01,North,0,0.0,0.0,71,0.00,,SHRA,0.35,VWS V14.01,2013-11-01 03:24:00,
2013-10-31 23:29:00,75.2,65.2,18.01,North,0,0.0,0.0,71,0.00,,SHRA,0.35,VWS V14.01,2013-11-01 03:29:00,
2013-10-31 23:34:00,75.0,65.4,18.01,North,0,0.0,0.0,72,0.00,,SHRA,0.35,VWS V14.01,2013-11-01 03:34:00,
2013-10-31 23:39:00,74.8,65.2,18.01,North,0,0.0,0.0,72,0.00,,SHRA,0.35,VWS V14.01,2013-11-01 03:39:00,
2013-10-31 23:44:00,74.7,65.4,18.01,North,0,0.0,0.0,73,0.00,,SHRA,0.35,VWS V14.01,2013-11-01 03:44:00,
2013-10-31 23:49:00,74.8,66.0,18.01,North,0,0.0,0.0,74,0.00,,SHRA,0.35,VWS V14.01,2013-11-01 03:49:00,
2013-10-31 23:54:00,74.7,66.2,18.01,North,0,0.0,0.0,75,0.00,,SHRA,0.35,VWS V14.01,2013-11-01 03:54:00,
2013-10-31 23:59:00,75.0,66.6,18.01,North,0,0.0,0.0,75,0.00,,SHRA,0.35,VWS V14.01,2013-11-01 03:59:00,